EPRA

Radom Military Air Base Airport

Poland
METAR EPRA 161900Z 27008KT 5000 BR OVC041 01/M01 Q1008
Observed Flight Rules
Dec-16 @ 19:00 UTC (6 hours ago) Marginal Visual Flight Rules
Wind Visibility Clouds Conditions
270° at 8 knots 5,005 meters
  • Overcast at 4,100' AGL
  • Mist
Temperatures Readings
Current 1°C / 34°F
Dewpoint -1°C / 30°F
Humidity 87%
Altimeter 29.76" Hg
Pressure 1008 hPa
Elevation 178
METAR EPRA 161900Z 27008KT 5000 BR OVC041 01/M01 Q1008
Observed Flight Rules
Dec-16 @ 19:00 UTC
(6 hours ago)
MVFR
Wind Visibility
270° at 8 knots 5,005 meters
Clouds
  • Overcast at 4,100' AGL
Conditions
  • Mist
Temperature Dewpoint
1°C / 34°F -1°C / 30°F
Humidity Altimeter Pressure
87% 29.76" Hg 1008 hPa